Des Moines International Airport Des Moines US
ICAO: KDSM
IATA: DSM
Category: Large
Scheduled Services: Yes

Elevation: 958 ft
TransAlt. 18000 ft.

Airport Communications:
APP/DEP:118.6
ATIS:119.55
CLNC DEL:134.15
GND:121.9
ANG OPS MAINT:138.15
FORT DODGE RDO:122.65
TWR:118.3
UNICOM:122.95

KDSM Zoom In..

Runways:

(A) RW 05 length 9003 ft width 150 ft
ILS 111.50 / hdg 51

(B) RW 13 length 9002 ft width 150 ft
ILS 111.90 / hdg 129

(C) RW 23 length 9003 ft width 150 ft
---- / hdg 231

(D) RW 31 length 9002 ft width 150 ft
ILS 110.30 / hdg 309

Location; KDSM
Day. 20 / Time. 02.54 Zulu
* Altimeter: 29.71
* Temperature: 25° c. 77°f.
* Wind from: 260° Speed 10 kn.
Dewpoint: 19° c.
Visibility: 10 Statute Miles.
Clouds: Few 6500 ft.
Clouds: Few 25000 ft.

KDSM 200254Z 26010KT 10SM FEW065 FEW250 25/19 A2971 RMK AO2 SLP052 T02500189 55005


Wind From 260°
Speed 10 kn.

 
 
jpsmedia.com for Web Design worldairports.se 2018   terms of use